sensor_id;sensor_type;location;lat;lon;timestamp;pressure;altitude;pressure_sealevel;temperature;humidity
71476;BME280;59286;59.274;17.974;2023-05-08T00:00:46;102582.63;;;3.64;71.51
71476;BME280;59286;59.274;17.974;2023-05-08T00:03:12;102544.53;;;3.45;71.54
71476;BME280;59286;59.274;17.974;2023-05-08T00:05:40;102567.66;;;3.53;71.38
71476;BME280;59286;59.274;17.974;2023-05-08T00:08:05;102588.59;;;3.71;71.52
71476;BME280;59286;59.274;17.974;2023-05-08T00:10:31;102599.19;;;3.76;71.34
71476;BME280;59286;59.274;17.974;2023-05-08T00:12:57;102584.63;;;3.69;71.41
71476;BME280;59286;59.274;17.974;2023-05-08T00:15:25;102589.22;;;3.73;71.79
71476;BME280;59286;59.274;17.974;2023-05-08T00:17:50;102636.09;;;3.98;71.10
71476;BME280;59286;59.274;17.974;2023-05-08T00:20:16;102594.00;;;3.76;71.14
71476;BME280;59286;59.274;17.974;2023-05-08T00:22:41;102601.97;;;3.75;71.27
71476;BME280;59286;59.274;17.974;2023-05-08T00:25:07;102593.81;;;3.65;71.21
71476;BME280;59286;59.274;17.974;2023-05-08T00:27:33;102581.44;;;3.60;71.76
71476;BME280;59286;59.274;17.974;2023-05-08T00:29:58;102589.19;;;3.60;71.92
71476;BME280;59286;59.274;17.974;2023-05-08T00:32:24;102606.78;;;3.65;71.96
71476;BME280;59286;59.274;17.974;2023-05-08T00:34:49;102592.41;;;3.56;71.68
71476;BME280;59286;59.274;17.974;2023-05-08T00:37:15;102594.78;;;3.57;72.16
71476;BME280;59286;59.274;17.974;2023-05-08T00:39:41;102632.28;;;3.81;72.10
71476;BME280;59286;59.274;17.974;2023-05-08T00:42:06;102601.41;;;3.60;72.08
71476;BME280;59286;59.274;17.974;2023-05-08T00:44:32;102573.81;;;3.33;72.60
71476;BME280;59286;59.274;17.974;2023-05-08T00:46:57;102584.38;;;3.38;71.87
71476;BME280;59286;59.274;17.974;2023-05-08T00:49:24;102573.63;;;3.28;72.62
71476;BME280;59286;59.274;17.974;2023-05-08T00:51:51;102597.56;;;3.43;72.66
71476;BME280;59286;59.274;17.974;2023-05-08T00:54:18;102597.34;;;3.38;72.57
71476;BME280;59286;59.274;17.974;2023-05-08T00:56:44;102593.97;;;3.37;72.10
71476;BME280;59286;59.274;17.974;2023-05-08T00:59:13;102574.00;;;3.25;72.37
71476;BME280;59286;59.274;17.974;2023-05-08T01:01:42;102641.88;;;3.61;72.18
71476;BME280;59286;59.274;17.974;2023-05-08T01:04:07;102607.53;;;3.39;72.03
71476;BME280;59286;59.274;17.974;2023-05-08T01:06:33;102607.13;;;3.29;72.52
71476;BME280;59286;59.274;17.974;2023-05-08T01:09:01;102577.19;;;3.07;72.88
71476;BME280;59286;59.274;17.974;2023-05-08T01:11:46;102643.63;;;3.41;72.68
71476;BME280;59286;59.274;17.974;2023-05-08T01:14:20;102646.78;;;3.36;73.16
71476;BME280;59286;59.274;17.974;2023-05-08T01:17:08;102641.41;;;3.31;73.04
71476;BME280;59286;59.274;17.974;2023-05-08T01:33:32;102649.06;;;2.98;73.59
71476;BME280;59286;59.274;17.974;2023-05-08T01:36:09;102624.06;;;2.78;73.85
71476;BME280;59286;59.274;17.974;2023-05-08T01:38:44;102650.63;;;2.93;74.01
71476;BME280;59286;59.274;17.974;2023-05-08T01:41:15;102651.84;;;2.90;73.66
71476;BME280;59286;59.274;17.974;2023-05-08T01:43:49;102623.25;;;2.71;73.77
71476;BME280;59286;59.274;17.974;2023-05-08T01:46:21;102653.16;;;2.80;74.36
71476;BME280;59286;59.274;17.974;2023-05-08T01:49:02;102632.97;;;2.62;74.14
71476;BME280;59286;59.274;17.974;2023-05-08T01:51:38;102628.94;;;2.53;74.53
71476;BME280;59286;59.274;17.974;2023-05-08T01:54:07;102634.13;;;2.53;74.28
71476;BME280;59286;59.274;17.974;2023-05-08T01:56:34;102647.50;;;2.63;74.42
71476;BME280;59286;59.274;17.974;2023-05-08T01:59:03;102636.09;;;2.51;74.75
71476;BME280;59286;59.274;17.974;2023-05-08T02:01:31;102655.47;;;2.62;74.36
71476;BME280;59286;59.274;17.974;2023-05-08T02:03:58;102623.72;;;2.47;74.53
71476;BME280;59286;59.274;17.974;2023-05-08T02:06:25;102653.50;;;2.64;75.01
71476;BME280;59286;59.274;17.974;2023-05-08T02:08:53;102636.72;;;2.53;74.75
71476;BME280;59286;59.274;17.974;2023-05-08T02:11:21;102656.28;;;2.62;74.25
71476;BME280;59286;59.274;17.974;2023-05-08T02:13:49;102655.06;;;2.58;75.19
71476;BME280;59286;59.274;17.974;2023-05-08T02:16:15;102658.25;;;2.60;75.46
71476;BME280;59286;59.274;17.974;2023-05-08T02:18:46;102642.22;;;2.44;75.69
71476;BME280;59286;59.274;17.974;2023-05-08T02:21:13;102654.59;;;2.48;74.89
71476;BME280;59286;59.274;17.974;2023-05-08T02:23:40;102627.84;;;2.35;75.23
71476;BME280;59286;59.274;17.974;2023-05-08T02:26:08;102666.56;;;2.56;75.39
71476;BME280;59286;59.274;17.974;2023-05-08T02:28:34;102660.56;;;2.49;75.99
71476;BME280;59286;59.274;17.974;2023-05-08T02:31:00;102657.59;;;2.52;75.80
71476;BME280;59286;59.274;17.974;2023-05-08T02:33:28;102614.44;;;2.25;76.13
71476;BME280;59286;59.274;17.974;2023-05-08T02:35:55;102668.19;;;2.57;75.86
71476;BME280;59286;59.274;17.974;2023-05-08T02:38:22;102665.41;;;2.58;76.06
71476;BME280;59286;59.274;17.974;2023-05-08T02:40:53;102656.19;;;2.49;76.11
71476;BME280;59286;59.274;17.974;2023-05-08T02:43:19;102597.25;;;2.11;76.78
71476;BME280;59286;59.274;17.974;2023-05-08T02:45:48;102634.41;;;2.37;76.22
71476;BME280;59286;59.274;17.974;2023-05-08T02:48:21;102603.63;;;2.15;76.56
71476;BME280;59286;59.274;17.974;2023-05-08T02:53:36;102667.81;;;2.60;76.72
71476;BME280;59286;59.274;17.974;2023-05-08T02:56:12;102627.06;;;2.41;76.63
71476;BME280;59286;59.274;17.974;2023-05-08T02:58:53;102580.72;;;2.12;76.68
71476;BME280;59286;59.274;17.974;2023-05-08T03:04:08;102598.53;;;2.28;76.88
71476;BME280;59286;59.274;17.974;2023-05-08T03:06:43;102618.31;;;2.42;77.15
71476;BME280;59286;59.274;17.974;2023-05-08T03:09:19;102634.28;;;2.52;77.41
71476;BME280;59286;59.274;17.974;2023-05-08T03:11:48;102622.50;;;2.43;77.11
71476;BME280;59286;59.274;17.974;2023-05-08T03:14:18;102606.97;;;2.43;77.07
71476;BME280;59286;59.274;17.974;2023-05-08T03:16:45;102634.97;;;2.60;77.26
71476;BME280;59286;59.274;17.974;2023-05-08T03:19:28;102584.84;;;2.34;77.16
71476;BME280;59286;59.274;17.974;2023-05-08T03:21:56;102609.88;;;2.61;77.22
71476;BME280;59286;59.274;17.974;2023-05-08T03:24:23;102604.09;;;2.65;76.75
71476;BME280;59286;59.274;17.974;2023-05-08T03:26:50;102626.09;;;2.76;77.49
71476;BME280;59286;59.274;17.974;2023-05-08T03:29:17;102642.91;;;3.00;77.15
71476;BME280;59286;59.274;17.974;2023-05-08T03:31:43;102595.53;;;2.65;77.70
71476;BME280;59286;59.274;17.974;2023-05-08T03:34:11;102601.72;;;2.70;77.93
71476;BME280;59286;59.274;17.974;2023-05-08T03:36:37;102625.13;;;2.90;77.50
71476;BME280;59286;59.274;17.974;2023-05-08T03:39:03;102609.38;;;2.85;77.69
71476;BME280;59286;59.274;17.974;2023-05-08T03:41:29;102602.22;;;2.87;77.60
71476;BME280;59286;59.274;17.974;2023-05-08T03:43:56;102616.78;;;2.94;77.55
71476;BME280;59286;59.274;17.974;2023-05-08T03:46:22;102580.28;;;2.83;77.38
71476;BME280;59286;59.274;17.974;2023-05-08T03:48:48;102625.63;;;3.20;77.95
71476;BME280;59286;59.274;17.974;2023-05-08T03:51:14;102628.25;;;3.26;77.55
71476;BME280;59286;59.274;17.974;2023-05-08T03:53:40;102628.28;;;3.39;77.66
71476;BME280;59286;59.274;17.974;2023-05-08T03:56:06;102597.16;;;3.33;77.13
71476;BME280;59286;59.274;17.974;2023-05-08T04:01:57;102661.03;;;3.99;76.28
71476;BME280;59286;59.274;17.974;2023-05-08T04:04:35;102631.13;;;3.97;76.45
71476;BME280;59286;59.274;17.974;2023-05-08T04:07:09;102654.03;;;4.26;76.17
71476;BME280;59286;59.274;17.974;2023-05-08T04:14:42;102577.41;;;4.17;74.54
71476;BME280;59286;59.274;17.974;2023-05-08T04:17:11;102600.28;;;4.52;73.92
71476;BME280;59286;59.274;17.974;2023-05-08T04:19:46;102656.41;;;5.04;73.45
71476;BME280;59286;59.274;17.974;2023-05-08T04:22:17;102573.38;;;4.84;73.62
71476;BME280;59286;59.274;17.974;2023-05-08T04:24:44;102595.59;;;5.18;72.84
71476;BME280;59286;59.274;17.974;2023-05-08T04:27:12;102587.44;;;5.39;71.52
71476;BME280;59286;59.274;17.974;2023-05-08T04:29:38;102632.44;;;5.96;71.07
71476;BME280;59286;59.274;17.974;2023-05-08T04:32:04;102644.25;;;6.23;69.35
71476;BME280;59286;59.274;17.974;2023-05-08T04:34:30;102646.53;;;6.31;69.35
71476;BME280;59286;59.274;17.974;2023-05-08T04:36:56;102605.47;;;6.33;69.19
71476;BME280;59286;59.274;17.974;2023-05-08T04:39:21;102610.88;;;6.49;68.14
71476;BME280;59286;59.274;17.974;2023-05-08T04:41:47;102645.41;;;6.81;68.16
71476;BME280;59286;59.274;17.974;2023-05-08T04:44:13;102608.03;;;6.87;67.73
71476;BME280;59286;59.274;17.974;2023-05-08T04:46:38;102583.06;;;7.09;67.45
71476;BME280;59286;59.274;17.974;2023-05-08T04:49:04;102583.22;;;7.26;66.18
71476;BME280;59286;59.274;17.974;2023-05-08T04:51:29;102595.31;;;7.38;65.22
71476;BME280;59286;59.274;17.974;2023-05-08T04:53:56;102608.94;;;7.52;65.26
71476;BME280;59286;59.274;17.974;2023-05-08T04:56:21;102595.09;;;7.51;65.24
71476;BME280;59286;59.274;17.974;2023-05-08T04:58:47;102609.41;;;7.83;63.98
71476;BME280;59286;59.274;17.974;2023-05-08T05:01:12;102611.72;;;8.03;63.01
71476;BME280;59286;59.274;17.974;2023-05-08T05:03:38;102620.25;;;8.33;63.86
71476;BME280;59286;59.274;17.974;2023-05-08T05:06:04;102623.19;;;8.48;61.47
71476;BME280;59286;59.274;17.974;2023-05-08T05:08:29;102625.41;;;8.56;61.16
71476;BME280;59286;59.274;17.974;2023-05-08T05:10:55;102624.31;;;8.80;60.13
71476;BME280;59286;59.274;17.974;2023-05-08T05:13:20;102641.13;;;8.96;58.95
71476;BME280;59286;59.274;17.974;2023-05-08T05:15:46;102641.03;;;9.19;58.27
71476;BME280;59286;59.274;17.974;2023-05-08T05:18:11;102654.47;;;9.39;58.55
71476;BME280;59286;59.274;17.974;2023-05-08T05:20:37;102668.69;;;9.60;57.09
71476;BME280;59286;59.274;17.974;2023-05-08T05:23:02;102633.78;;;9.54;58.24
71476;BME280;59286;59.274;17.974;2023-05-08T05:25:28;102601.09;;;9.57;55.91
71476;BME280;59286;59.274;17.974;2023-05-08T05:27:54;102669.09;;;10.18;56.52
71476;BME280;59286;59.274;17.974;2023-05-08T05:30:19;102649.34;;;10.11;56.18
71476;BME280;59286;59.274;17.974;2023-05-08T05:32:45;102610.44;;;10.03;55.26
71476;BME280;59286;59.274;17.974;2023-05-08T05:35:10;102624.88;;;10.22;55.21
71476;BME280;59286;59.274;17.974;2023-05-08T05:37:35;102646.28;;;10.35;54.26
71476;BME280;59286;59.274;17.974;2023-05-08T05:40:01;102666.38;;;10.68;56.26
71476;BME280;59286;59.274;17.974;2023-05-08T05:42:27;102624.59;;;10.61;54.40
71476;BME280;59286;59.274;17.974;2023-05-08T05:44:52;102643.97;;;10.82;54.08
71476;BME280;59286;59.274;17.974;2023-05-08T05:47:17;102644.56;;;11.11;54.32
71476;BME280;59286;59.274;17.974;2023-05-08T05:49:43;102613.50;;;11.03;52.85
71476;BME280;59286;59.274;17.974;2023-05-08T05:52:11;102647.13;;;11.32;53.24
71476;BME280;59286;59.274;17.974;2023-05-08T05:54:37;102625.94;;;11.39;52.21
71476;BME280;59286;59.274;17.974;2023-05-08T05:57:03;102617.78;;;11.35;53.24
71476;BME280;59286;59.274;17.974;2023-05-08T05:59:28;102646.44;;;11.68;50.59
71476;BME280;59286;59.274;17.974;2023-05-08T06:01:54;102611.00;;;11.44;51.70
71476;BME280;59286;59.274;17.974;2023-05-08T06:04:19;102641.31;;;11.84;52.20
71476;BME280;59286;59.274;17.974;2023-05-08T06:06:44;102627.06;;;11.80;51.34
71476;BME280;59286;59.274;17.974;2023-05-08T06:09:10;102628.22;;;11.94;51.68
71476;BME280;59286;59.274;17.974;2023-05-08T06:11:35;102610.94;;;12.03;50.56
71476;BME280;59286;59.274;17.974;2023-05-08T06:14:01;102654.28;;;12.47;50.63
71476;BME280;59286;59.274;17.974;2023-05-08T06:16:26;102625.38;;;12.57;49.85
71476;BME280;59286;59.274;17.974;2023-05-08T06:18:51;102616.78;;;12.77;48.98
71476;BME280;59286;59.274;17.974;2023-05-08T06:21:17;102639.69;;;12.81;49.70
71476;BME280;59286;59.274;17.974;2023-05-08T06:23:42;102592.53;;;12.64;48.89
71476;BME280;59286;59.274;17.974;2023-05-08T06:26:08;102622.84;;;12.87;47.90
71476;BME280;59286;59.274;17.974;2023-05-08T06:28:33;102592.31;;;12.81;48.32
71476;BME280;59286;59.274;17.974;2023-05-08T06:30:59;102639.28;;;13.24;49.48
71476;BME280;59286;59.274;17.974;2023-05-08T06:33:24;102630.09;;;13.47;50.30
71476;BME280;59286;59.274;17.974;2023-05-08T06:35:50;102608.50;;;13.35;48.27
71476;BME280;59286;59.274;17.974;2023-05-08T06:38:15;102621.38;;;13.46;47.51
71476;BME280;59286;59.274;17.974;2023-05-08T06:40:45;102619.81;;;13.66;47.20
71476;BME280;59286;59.274;17.974;2023-05-08T06:43:11;102589.22;;;13.59;46.37
71476;BME280;59286;59.274;17.974;2023-05-08T06:45:38;102650.84;;;14.09;47.75
71476;BME280;59286;59.274;17.974;2023-05-08T06:48:04;102627.66;;;14.11;46.10
71476;BME280;59286;59.274;17.974;2023-05-08T06:50:29;102584.47;;;13.82;44.96
71476;BME280;59286;59.274;17.974;2023-05-08T06:52:55;102608.72;;;13.89;44.74
71476;BME280;59286;59.274;17.974;2023-05-08T06:55:20;102603.94;;;14.06;45.07
71476;BME280;59286;59.274;17.974;2023-05-08T06:57:46;102583.34;;;14.03;44.58
71476;BME280;59286;59.274;17.974;2023-05-08T07:00:12;102643.88;;;14.53;46.00
71476;BME280;59286;59.274;17.974;2023-05-08T07:02:37;102643.13;;;14.47;45.45
71476;BME280;59286;59.274;17.974;2023-05-08T07:05:03;102595.94;;;14.36;44.39
71476;BME280;59286;59.274;17.974;2023-05-08T07:07:28;102643.59;;;14.54;43.23
71476;BME280;59286;59.274;17.974;2023-05-08T07:09:54;102604.31;;;14.53;43.33
71476;BME280;59286;59.274;17.974;2023-05-08T07:12:19;102587.19;;;14.45;43.59
71476;BME280;59286;59.274;17.974;2023-05-08T07:14:44;102577.38;;;14.56;45.02
71476;BME280;59286;59.274;17.974;2023-05-08T07:17:10;102611.88;;;14.75;42.86
71476;BME280;59286;59.274;17.974;2023-05-08T07:19:36;102604.22;;;14.68;41.86
71476;BME280;59286;59.274;17.974;2023-05-08T07:22:02;102629.38;;;15.04;44.51
71476;BME280;59286;59.274;17.974;2023-05-08T07:24:28;102606.13;;;15.01;43.81
71476;BME280;59286;59.274;17.974;2023-05-08T07:26:53;102574.88;;;14.80;43.89
71476;BME280;59286;59.274;17.974;2023-05-08T07:29:19;102586.78;;;15.16;42.30
71476;BME280;59286;59.274;17.974;2023-05-08T07:31:44;102569.53;;;15.23;42.33
71476;BME280;59286;59.274;17.974;2023-05-08T07:34:14;102629.81;;;15.84;42.60
71476;BME280;59286;59.274;17.974;2023-05-08T07:36:39;102580.50;;;15.69;41.79
71476;BME280;59286;59.274;17.974;2023-05-08T07:39:05;102590.03;;;15.36;41.94
71476;BME280;59286;59.274;17.974;2023-05-08T07:41:30;102574.41;;;15.45;42.91
71476;BME280;59286;59.274;17.974;2023-05-08T07:43:56;102568.09;;;15.70;42.32
71476;BME280;59286;59.274;17.974;2023-05-08T07:46:21;102622.66;;;16.13;42.78
71476;BME280;59286;59.274;17.974;2023-05-08T07:48:47;102581.03;;;15.71;39.83
71476;BME280;59286;59.274;17.974;2023-05-08T07:51:13;102564.34;;;15.76;40.50
71476;BME280;59286;59.274;17.974;2023-05-08T07:53:39;102572.56;;;15.98;42.12
71476;BME280;59286;59.274;17.974;2023-05-08T07:56:04;102565.28;;;16.08;40.54
71476;BME280;59286;59.274;17.974;2023-05-08T07:58:30;102582.81;;;16.23;39.38
71476;BME280;59286;59.274;17.974;2023-05-08T08:00:55;102599.75;;;16.45;38.65
71476;BME280;59286;59.274;17.974;2023-05-08T08:03:21;102574.78;;;16.33;39.00
71476;BME280;59286;59.274;17.974;2023-05-08T08:05:46;102560.94;;;16.17;38.90
71476;BME280;59286;59.274;17.974;2023-05-08T08:08:12;102566.63;;;16.29;40.29
71476;BME280;59286;59.274;17.974;2023-05-08T08:10:37;102568.97;;;16.31;37.91
71476;BME280;59286;59.274;17.974;2023-05-08T08:13:03;102580.50;;;16.40;37.63
71476;BME280;59286;59.274;17.974;2023-05-08T08:15:29;102551.66;;;16.20;37.94
71476;BME280;59286;59.274;17.974;2023-05-08T08:17:55;102546.88;;;16.22;36.32
71476;BME280;59286;59.274;17.974;2023-05-08T08:20:20;102544.34;;;16.30;39.81
71476;BME280;59286;59.274;17.974;2023-05-08T08:22:46;102525.75;;;16.17;38.40
71476;BME280;59286;59.274;17.974;2023-05-08T08:25:11;102576.34;;;16.34;37.57
71476;BME280;59286;59.274;17.974;2023-05-08T08:27:37;102600.81;;;16.26;38.44
71476;BME280;59286;59.274;17.974;2023-05-08T08:30:03;102593.22;;;16.38;40.18
71476;BME280;59286;59.274;17.974;2023-05-08T08:32:29;102563.91;;;16.34;39.95
71476;BME280;59286;59.274;17.974;2023-05-08T08:34:54;102548.22;;;16.19;38.50
71476;BME280;59286;59.274;17.974;2023-05-08T08:37:19;102584.34;;;16.53;37.33
71476;BME280;59286;59.274;17.974;2023-05-08T08:39:45;102571.25;;;16.37;36.65
71476;BME280;59286;59.274;17.974;2023-05-08T08:42:10;102598.44;;;16.48;38.52
71476;BME280;59286;59.274;17.974;2023-05-08T08:44:36;102538.63;;;16.23;37.74
71476;BME280;59286;59.274;17.974;2023-05-08T08:47:04;102567.69;;;16.52;38.74
71476;BME280;59286;59.274;17.974;2023-05-08T08:49:41;102543.44;;;16.40;38.22
71476;BME280;59286;59.274;17.974;2023-05-08T08:55:10;102543.00;;;16.14;36.70
71476;BME280;59286;59.274;17.974;2023-05-08T08:58:11;102556.22;;;15.91;37.09
71476;BME280;59286;59.274;17.974;2023-05-08T09:00:39;102565.81;;;16.29;38.09
71476;BME280;59286;59.274;17.974;2023-05-08T09:03:05;102540.34;;;16.14;38.29
71476;BME280;59286;59.274;17.974;2023-05-08T09:05:34;102584.66;;;16.46;39.86
71476;BME280;59286;59.274;17.974;2023-05-08T09:07:59;102580.94;;;16.47;37.78
71476;BME280;59286;59.274;17.974;2023-05-08T09:10:25;102556.75;;;16.35;40.02
71476;BME280;59286;59.274;17.974;2023-05-08T09:12:51;102520.19;;;15.95;36.95
71476;BME280;59286;59.274;17.974;2023-05-08T09:15:17;102523.38;;;16.15;38.77
71476;BME280;59286;59.274;17.974;2023-05-08T09:17:42;102535.56;;;16.35;37.92
71476;BME280;59286;59.274;17.974;2023-05-08T09:20:08;102535.56;;;16.35;38.33
71476;BME280;59286;59.274;17.974;2023-05-08T09:22:37;102516.88;;;16.26;40.65
71476;BME280;59286;59.274;17.974;2023-05-08T09:25:03;102523.25;;;16.25;38.89
71476;BME280;59286;59.274;17.974;2023-05-08T09:27:30;102530.09;;;16.50;39.12
71476;BME280;59286;59.274;17.974;2023-05-08T09:30:06;102573.09;;;16.79;39.63
71476;BME280;59286;59.274;17.974;2023-05-08T09:32:35;102527.88;;;16.57;37.67
71476;BME280;59286;59.274;17.974;2023-05-08T09:35:02;102523.78;;;16.46;36.91
71476;BME280;59286;59.274;17.974;2023-05-08T09:37:28;102543.69;;;16.62;38.30
71476;BME280;59286;59.274;17.974;2023-05-08T09:39:58;102567.22;;;16.82;37.20
71476;BME280;59286;59.274;17.974;2023-05-08T09:42:37;102540.63;;;16.55;39.06
71476;BME280;59286;59.274;17.974;2023-05-08T09:45:03;102527.97;;;16.71;40.87
71476;BME280;59286;59.274;17.974;2023-05-08T09:47:29;102542.31;;;16.83;40.85
71476;BME280;59286;59.274;17.974;2023-05-08T09:50:09;102514.97;;;16.69;38.38
71476;BME280;59286;59.274;17.974;2023-05-08T09:52:36;102524.06;;;16.82;40.04
71476;BME280;59286;59.274;17.974;2023-05-08T09:57:34;102535.75;;;16.62;39.64
71476;BME280;59286;59.274;17.974;2023-05-08T10:00:24;102551.78;;;16.52;39.12
71476;BME280;59286;59.274;17.974;2023-05-08T10:03:00;102510.25;;;16.29;37.54
71476;BME280;59286;59.274;17.974;2023-05-08T10:05:31;102482.06;;;16.19;41.03
71476;BME280;59286;59.274;17.974;2023-05-08T10:07:57;102510.47;;;16.32;39.61
71476;BME280;59286;59.274;17.974;2023-05-08T10:10:24;102483.06;;;16.05;39.85
71476;BME280;59286;59.274;17.974;2023-05-08T10:12:50;102499.56;;;16.15;40.50
71476;BME280;59286;59.274;17.974;2023-05-08T10:15:17;102493.97;;;16.17;38.69
71476;BME280;59286;59.274;17.974;2023-05-08T10:18:01;102534.38;;;16.46;38.38
71476;BME280;59286;59.274;17.974;2023-05-08T10:20:29;102544.31;;;16.54;37.99
71476;BME280;59286;59.274;17.974;2023-05-08T10:22:55;102484.50;;;16.16;39.53
71476;BME280;59286;59.274;17.974;2023-05-08T10:25:22;102513.19;;;16.46;38.76
71476;BME280;59286;59.274;17.974;2023-05-08T10:27:58;102537.16;;;16.73;38.72
71476;BME280;59286;59.274;17.974;2023-05-08T10:30:30;102482.16;;;16.52;40.39
71476;BME280;59286;59.274;17.974;2023-05-08T10:32:59;102498.25;;;16.74;38.24
71476;BME280;59286;59.274;17.974;2023-05-08T10:35:27;102479.44;;;16.57;36.72
71476;BME280;59286;59.274;17.974;2023-05-08T10:37:55;102486.66;;;16.70;39.25
71476;BME280;59286;59.274;17.974;2023-05-08T10:40:20;102477.19;;;16.45;36.99
71476;BME280;59286;59.274;17.974;2023-05-08T10:42:47;102539.31;;;16.71;37.67
71476;BME280;59286;59.274;17.974;2023-05-08T10:45:13;102498.75;;;16.57;38.27
71476;BME280;59286;59.274;17.974;2023-05-08T10:55:36;102485.88;;;16.51;36.64
71476;BME280;59286;59.274;17.974;2023-05-08T10:58:15;102503.97;;;16.62;38.76
71476;BME280;59286;59.274;17.974;2023-05-08T11:03:19;102479.31;;;16.43;38.73
71476;BME280;59286;59.274;17.974;2023-05-08T11:05:47;102469.31;;;16.40;37.58
71476;BME280;59286;59.274;17.974;2023-05-08T11:08:24;102492.59;;;16.62;36.82
71476;BME280;59286;59.274;17.974;2023-05-08T11:13:40;102511.16;;;16.94;36.74
71476;BME280;59286;59.274;17.974;2023-05-08T11:16:07;102474.75;;;16.67;37.04
71476;BME280;59286;59.274;17.974;2023-05-08T11:18:35;102459.53;;;16.59;36.37
71476;BME280;59286;59.274;17.974;2023-05-08T11:21:05;102441.22;;;16.63;38.90
71476;BME280;59286;59.274;17.974;2023-05-08T11:23:38;102474.44;;;16.87;38.47
71476;BME280;59286;59.274;17.974;2023-05-08T11:28:54;102470.16;;;16.91;36.62
71476;BME280;59286;59.274;17.974;2023-05-08T11:31:20;102465.41;;;16.88;37.65
71476;BME280;59286;59.274;17.974;2023-05-08T11:33:46;102469.31;;;16.77;37.38
71476;BME280;59286;59.274;17.974;2023-05-08T11:36:15;102479.25;;;16.85;38.46
71476;BME280;59286;59.274;17.974;2023-05-08T11:38:42;102503.34;;;17.02;37.70
71476;BME280;59286;59.274;17.974;2023-05-08T11:41:20;102507.94;;;16.97;37.72
71476;BME280;59286;59.274;17.974;2023-05-08T11:46:41;102460.25;;;16.65;37.74
71476;BME280;59286;59.274;17.974;2023-05-08T11:49:14;102466.16;;;16.75;38.09
71476;BME280;59286;59.274;17.974;2023-05-08T11:51:47;102481.91;;;16.85;36.45
71476;BME280;59286;59.274;17.974;2023-05-08T11:54:15;102442.00;;;16.63;37.32
71476;BME280;59286;59.274;17.974;2023-05-08T11:56:40;102485.59;;;16.84;37.80
71476;BME280;59286;59.274;17.974;2023-05-08T11:59:07;102469.47;;;16.67;35.87
71476;BME280;59286;59.274;17.974;2023-05-08T12:01:36;102470.03;;;16.64;36.58
71476;BME280;59286;59.274;17.974;2023-05-08T12:04:06;102474.69;;;16.72;35.29
71476;BME280;59286;59.274;17.974;2023-05-08T12:06:33;102483.25;;;16.83;36.45
71476;BME280;59286;59.274;17.974;2023-05-08T12:09:00;102464.00;;;16.77;37.44
71476;BME280;59286;59.274;17.974;2023-05-08T12:11:25;102461.59;;;16.62;36.09
71476;BME280;59286;59.274;17.974;2023-05-08T12:13:53;102432.78;;;16.42;36.51
71476;BME280;59286;59.274;17.974;2023-05-08T12:16:22;102450.50;;;16.60;37.26
71476;BME280;59286;59.274;17.974;2023-05-08T12:18:49;102450.38;;;16.70;37.13
71476;BME280;59286;59.274;17.974;2023-05-08T12:21:15;102435.78;;;16.54;35.83
71476;BME280;59286;59.274;17.974;2023-05-08T12:23:41;102447.50;;;16.67;35.03
71476;BME280;59286;59.274;17.974;2023-05-08T12:26:07;102476.34;;;16.68;36.29
71476;BME280;59286;59.274;17.974;2023-05-08T12:28:32;102430.72;;;16.39;35.78
71476;BME280;59286;59.274;17.974;2023-05-08T12:30:58;102464.84;;;16.59;35.50
71476;BME280;59286;59.274;17.974;2023-05-08T12:33:24;102424.97;;;16.32;36.57
71476;BME280;59286;59.274;17.974;2023-05-08T12:35:50;102422.19;;;16.42;36.02
71476;BME280;59286;59.274;17.974;2023-05-08T12:38:15;102439.00;;;16.51;35.48
71476;BME280;59286;59.274;17.974;2023-05-08T12:40:45;102468.09;;;16.70;36.48
71476;BME280;59286;59.274;17.974;2023-05-08T12:43:13;102476.94;;;16.65;35.44
71476;BME280;59286;59.274;17.974;2023-05-08T12:45:40;102430.25;;;16.32;35.50
71476;BME280;59286;59.274;17.974;2023-05-08T12:48:10;102457.53;;;16.32;35.20
71476;BME280;59286;59.274;17.974;2023-05-08T12:50:37;102418.41;;;16.11;36.54
71476;BME280;59286;59.274;17.974;2023-05-08T12:53:17;102422.63;;;16.30;36.19
71476;BME280;59286;59.274;17.974;2023-05-08T12:55:54;102458.47;;;16.60;34.63
71476;BME280;59286;59.274;17.974;2023-05-08T12:58:25;102415.59;;;16.21;34.87
71476;BME280;59286;59.274;17.974;2023-05-08T13:00:52;102448.28;;;16.30;34.94
71476;BME280;59286;59.274;17.974;2023-05-08T13:03:23;102433.13;;;16.17;34.60
71476;BME280;59286;59.274;17.974;2023-05-08T13:05:54;102437.88;;;16.20;34.26
71476;BME280;59286;59.274;17.974;2023-05-08T13:08:19;102430.22;;;16.18;34.90
71476;BME280;59286;59.274;17.974;2023-05-08T13:10:54;102415.31;;;16.04;34.84
71476;BME280;59286;59.274;17.974;2023-05-08T13:13:25;102420.56;;;16.09;34.46
71476;BME280;59286;59.274;17.974;2023-05-08T13:15:51;102408.47;;;16.03;34.53
71476;BME280;59286;59.274;17.974;2023-05-08T13:21:06;102417.03;;;15.95;33.10
71476;BME280;59286;59.274;17.974;2023-05-08T13:23:31;102398.09;;;15.88;33.67
71476;BME280;59286;59.274;17.974;2023-05-08T13:25:59;102399.91;;;15.92;34.02
71476;BME280;59286;59.274;17.974;2023-05-08T13:28:28;102451.00;;;16.25;32.82
71476;BME280;59286;59.274;17.974;2023-05-08T13:30:56;102412.84;;;15.94;32.14
71476;BME280;59286;59.274;17.974;2023-05-08T13:33:21;102454.78;;;16.00;31.59
71476;BME280;59286;59.274;17.974;2023-05-08T13:35:47;102405.47;;;15.48;32.56
71476;BME280;59286;59.274;17.974;2023-05-08T13:38:12;102441.19;;;15.70;32.19
71476;BME280;59286;59.274;17.974;2023-05-08T13:40:38;102428.22;;;15.49;32.57